Time;durP1;ratioP1;P1;durP2;ratioP2;P2;SDS_P1;SDS_P2;PMS_P1;PMS_P2;Temp;Humidity;BMP_temperature;BMP_pressure;BME280_temperature;BME280_humidity;BME280_pressure;Samples;Min_cycle;Max_cycle;Signal;HPM_P1;HPM_P2
2023/07/29 00:02:12;;;;;;;8.30;5.75;;;;;;;;;;5057048;28;20393;-62
2023/07/29 00:04:38;;;;;;;7.90;5.90;;;;;;;;;;5055533;28;20507;-62
2023/07/29 00:07:04;;;;;;;8.25;6.00;;;;;;;;;;5056246;28;20041;-62
2023/07/29 00:09:30;;;;;;;9.60;5.93;;;;;;;;;;5052943;28;20059;-62
2023/07/29 00:11:56;;;;;;;8.32;6.28;;;;;;;;;;5054035;28;20059;-62
2023/07/29 00:14:22;;;;;;;10.10;6.18;;;;;;;;;;5055425;28;20035;-62
2023/07/29 00:16:48;;;;;;;9.30;5.78;;;;;;;;;;5053923;28;20621;-62
2023/07/29 00:19:14;;;;;;;9.57;6.05;;;;;;;;;;5054147;28;20634;-62
2023/07/29 00:21:41;;;;;;;9.00;6.15;;;;;;;;;;5054911;28;20040;-62
2023/07/29 00:24:07;;;;;;;9.20;5.72;;;;;;;;;;5056114;28;20059;-62
2023/07/29 00:26:33;;;;;;;8.73;5.97;;;;;;;;;;5051645;28;20032;-62
2023/07/29 00:28:59;;;;;;;11.18;5.75;;;;;;;;;;5053417;28;20028;-62
2023/07/29 00:31:25;;;;;;;9.02;6.18;;;;;;;;;;5054683;28;20047;-62
2023/07/29 00:33:52;;;;;;;8.85;6.43;;;;;;;;;;5055629;28;20109;-62
2023/07/29 00:36:19;;;;;;;9.82;6.30;;;;;;;;;;5054822;28;20058;-62
2023/07/29 00:38:48;;;;;;;9.73;6.07;;;;;;;;;;5053106;28;20118;-62
2023/07/29 00:41:16;;;;;;;7.93;5.72;;;;;;;;;;5057918;28;20455;-62
2023/07/29 00:43:42;;;;;;;9.57;6.65;;;;;;;;;;5058937;28;20035;-62
2023/07/29 00:46:09;;;;;;;9.65;6.18;;;;;;;;;;5059399;28;20070;-62
2023/07/29 00:48:35;;;;;;;8.95;6.28;;;;;;;;;;5058762;28;20080;-63
2023/07/29 00:51:01;;;;;;;11.30;6.30;;;;;;;;;;5058356;28;20035;-62
2023/07/29 00:53:27;;;;;;;9.07;5.80;;;;;;;;;;5058462;28;20037;-62
2023/07/29 00:55:54;;;;;;;14.68;5.95;;;;;;;;;;5059167;28;20039;-62
2023/07/29 00:58:20;;;;;;;8.27;5.78;;;;;;;;;;5059395;28;20199;-62
2023/07/29 01:00:46;;;;;;;9.55;6.15;;;;;;;;;;5057767;28;20043;-62
2023/07/29 01:03:12;;;;;;;9.93;6.65;;;;;;;;;;5059082;28;20086;-62
2023/07/29 01:05:45;;;;;;;8.90;5.53;;;;;;;;;;5060039;28;20040;-62
2023/07/29 01:08:18;;;;;;;10.55;6.43;;;;;;;;;;5041808;28;20040;-62
2023/07/29 01:10:51;;;;;;;11.40;6.63;;;;;;;;;;5057985;28;20074;-62
2023/07/29 01:13:21;;;;;;;8.40;6.43;;;;;;;;;;5058186;28;20028;-62
2023/07/29 01:15:55;;;;;;;9.85;7.07;;;;;;;;;;5058352;28;20543;-62
2023/07/29 01:18:24;;;;;;;10.27;6.60;;;;;;;;;;5059473;28;20134;-62
2023/07/29 01:20:53;;;;;;;9.70;7.25;;;;;;;;;;5055821;28;20062;-62
2023/07/29 01:23:24;;;;;;;8.80;7.00;;;;;;;;;;5057849;28;20027;-62
2023/07/29 01:25:50;;;;;;;9.60;7.13;;;;;;;;;;5059546;28;20028;-62
2023/07/29 01:28:16;;;;;;;9.32;7.43;;;;;;;;;;5056744;28;20044;-62
2023/07/29 01:30:44;;;;;;;9.45;6.75;;;;;;;;;;5056110;28;20028;-62
2023/07/29 01:33:14;;;;;;;9.98;6.80;;;;;;;;;;5058636;28;20052;-62
2023/07/29 01:35:45;;;;;;;11.55;7.18;;;;;;;;;;5057304;28;20067;-62
2023/07/29 01:38:18;;;;;;;14.02;7.75;;;;;;;;;;5058115;28;20121;-62
2023/07/29 01:40:44;;;;;;;;;;;;;;;;;;5059458;28;20028;-62
2023/07/29 01:43:11;;;;;;;11.98;7.10;;;;;;;;;;5058670;28;20038;-62
2023/07/29 01:45:38;;;;;;;10.73;7.03;;;;;;;;;;5058680;28;20036;-62
2023/07/29 01:48:07;;;;;;;8.73;6.63;;;;;;;;;;5057545;28;20118;-62
2023/07/29 01:50:33;;;;;;;11.93;7.78;;;;;;;;;;5057910;28;21037;-62
2023/07/29 01:52:59;;;;;;;10.10;7.82;;;;;;;;;;5058045;28;20599;-62
2023/07/29 01:55:26;;;;;;;10.93;7.45;;;;;;;;;;5059485;28;20040;-62
2023/07/29 01:57:52;;;;;;;9.95;7.00;;;;;;;;;;5057919;28;20028;-62
2023/07/29 02:00:21;;;;;;;12.20;7.72;;;;;;;;;;5057751;28;20032;-62
2023/07/29 02:02:47;;;;;;;9.80;6.95;;;;;;;;;;5057856;28;20087;-62
2023/07/29 02:05:13;;;;;;;9.20;7.07;;;;;;;;;;5057242;28;20029;-62
2023/07/29 02:07:39;;;;;;;9.23;7.43;;;;;;;;;;5059091;28;20032;-62
2023/07/29 02:10:06;;;;;;;11.30;7.63;;;;;;;;;;5057429;28;20033;-62
2023/07/29 02:12:32;;;;;;;9.70;7.15;;;;;;;;;;5058488;28;20029;-62
2023/07/29 02:14:58;;;;;;;11.40;8.05;;;;;;;;;;5039193;28;20082;-62
2023/07/29 02:17:24;;;;;;;9.68;7.53;;;;;;;;;;5043546;28;20040;-62
2023/07/29 02:19:50;;;;;;;11.18;7.85;;;;;;;;;;5056129;28;20028;-62
2023/07/29 02:22:20;;;;;;;9.75;7.63;;;;;;;;;;5056084;28;20041;-62
2023/07/29 02:24:46;;;;;;;13.30;7.55;;;;;;;;;;5058482;28;20521;-62
2023/07/29 02:27:13;;;;;;;11.38;8.07;;;;;;;;;;5058586;28;20511;-62
2023/07/29 02:29:39;;;;;;;12.20;7.60;;;;;;;;;;5056798;28;20032;-62
2023/07/29 02:32:05;;;;;;;11.60;8.13;;;;;;;;;;5057782;28;20125;-62
2023/07/29 02:34:31;;;;;;;11.73;8.02;;;;;;;;;;5058477;28;20039;-62
2023/07/29 02:36:57;;;;;;;10.20;7.68;;;;;;;;;;5057696;28;20055;-62
2023/07/29 02:39:23;;;;;;;10.85;7.65;;;;;;;;;;5057899;28;20112;-62
2023/07/29 02:41:50;;;;;;;12.15;7.95;;;;;;;;;;5057468;28;20033;-62
2023/07/29 02:44:16;;;;;;;10.77;7.07;;;;;;;;;;5058453;28;20036;-62
2023/07/29 02:46:42;;;;;;;11.35;7.75;;;;;;;;;;5057410;28;20051;-62
2023/07/29 02:49:08;;;;;;;13.15;7.78;;;;;;;;;;5057858;28;20098;-62
2023/07/29 02:51:34;;;;;;;9.27;6.97;;;;;;;;;;5056563;28;20025;-62
2023/07/29 02:54:00;;;;;;;10.77;6.88;;;;;;;;;;5058237;28;20032;-62
2023/07/29 02:56:26;;;;;;;12.10;7.25;;;;;;;;;;5057410;28;20487;-62
2023/07/29 02:58:52;;;;;;;11.15;7.75;;;;;;;;;;5055633;28;20035;-62
2023/07/29 03:01:19;;;;;;;11.07;7.43;;;;;;;;;;5055583;28;20032;-62
2023/07/29 03:03:45;;;;;;;9.48;7.22;;;;;;;;;;5056406;28;20036;-62
2023/07/29 03:06:11;;;;;;;9.13;6.70;;;;;;;;;;5056109;28;20036;-62
2023/07/29 03:08:38;;;;;;;10.77;7.57;;;;;;;;;;5055232;28;20104;-62
2023/07/29 03:11:07;;;;;;;11.15;7.10;;;;;;;;;;5056994;28;20044;-62
2023/07/29 03:13:34;;;;;;;9.32;6.47;;;;;;;;;;5056593;28;20112;-62
2023/07/29 03:16:07;;;;;;;10.63;7.20;;;;;;;;;;5056598;28;20549;-62
2023/07/29 03:18:33;;;;;;;12.73;7.00;;;;;;;;;;5056778;28;20043;-62
2023/07/29 03:20:59;;;;;;;9.32;6.88;;;;;;;;;;5056892;28;20050;-62
2023/07/29 03:23:26;;;;;;;10.15;7.25;;;;;;;;;;5055750;28;20020;-62
2023/07/29 03:25:56;;;;;;;10.13;7.40;;;;;;;;;;5055857;28;20125;-62
2023/07/29 03:28:22;;;;;;;14.02;7.78;;;;;;;;;;5053814;28;20024;-62
2023/07/29 03:30:48;;;;;;;12.65;7.38;;;;;;;;;;5055711;28;20029;-62
2023/07/29 03:33:14;;;;;;;8.63;6.40;;;;;;;;;;5055357;28;20660;-62
2023/07/29 03:35:44;;;;;;;9.90;6.72;;;;;;;;;;5037868;28;20036;-62
2023/07/29 03:38:10;;;;;;;9.57;6.60;;;;;;;;;;5057301;28;20047;-62
2023/07/29 03:40:36;;;;;;;9.75;6.20;;;;;;;;;;5057073;28;20784;-62
2023/07/29 03:43:03;;;;;;;10.60;6.63;;;;;;;;;;5054290;28;20511;-62
2023/07/29 03:45:29;;;;;;;11.63;7.05;;;;;;;;;;5055066;28;20036;-62
2023/07/29 03:47:55;;;;;;;12.07;7.15;;;;;;;;;;5056056;28;20040;-62
2023/07/29 03:50:21;;;;;;;8.95;6.32;;;;;;;;;;5056793;28;20806;-62
2023/07/29 03:52:47;;;;;;;10.52;7.07;;;;;;;;;;5054647;28;20126;-62
2023/07/29 03:55:13;;;;;;;10.45;6.68;;;;;;;;;;5055594;28;20033;-62
2023/07/29 03:57:39;;;;;;;10.20;7.25;;;;;;;;;;5054925;28;20616;-62
2023/07/29 04:00:06;;;;;;;11.93;6.68;;;;;;;;;;5054616;28;20431;-62
2023/07/29 04:02:32;;;;;;;10.93;6.85;;;;;;;;;;5055708;28;20041;-62
2023/07/29 04:04:58;;;;;;;11.93;6.28;;;;;;;;;;5057786;28;20032;-62
2023/07/29 04:07:24;;;;;;;10.57;6.88;;;;;;;;;;5055231;28;20040;-62
2023/07/29 04:09:50;;;;;;;10.68;5.90;;;;;;;;;;5052187;28;20074;-62
2023/07/29 04:12:16;;;;;;;10.63;6.90;;;;;;;;;;5051067;28;20103;-62
2023/07/29 04:14:42;;;;;;;10.77;6.93;;;;;;;;;;5054752;28;20032;-62
2023/07/29 04:17:11;;;;;;;9.98;6.45;;;;;;;;;;5037779;28;20052;-62
2023/07/29 04:19:37;;;;;;;12.30;6.25;;;;;;;;;;5055491;28;20036;-62
2023/07/29 04:22:04;;;;;;;8.90;5.68;;;;;;;;;;5053395;28;20423;-62
2023/07/29 04:24:30;;;;;;;8.68;5.63;;;;;;;;;;5053801;28;20082;-62
2023/07/29 04:26:56;;;;;;;8.75;6.00;;;;;;;;;;5055069;28;21654;-62
2023/07/29 04:29:22;;;;;;;8.95;6.05;;;;;;;;;;5055709;28;20032;-62
2023/07/29 04:31:49;;;;;;;7.35;5.05;;;;;;;;;;5055817;28;20024;-62
2023/07/29 04:34:15;;;;;;;7.38;5.18;;;;;;;;;;5057425;28;20024;-62
2023/07/29 04:36:41;;;;;;;9.43;5.32;;;;;;;;;;5056473;28;20040;-62
2023/07/29 04:39:07;;;;;;;8.63;5.72;;;;;;;;;;5055609;28;20036;-62
2023/07/29 04:41:33;;;;;;;8.50;5.13;;;;;;;;;;5054259;28;20044;-62
2023/07/29 04:43:59;;;;;;;9.32;5.03;;;;;;;;;;5054719;28;20426;-62
2023/07/29 04:46:25;;;;;;;8.48;5.15;;;;;;;;;;5057025;28;20109;-62
2023/07/29 04:48:51;;;;;;;8.05;4.50;;;;;;;;;;5055446;28;20040;-62
2023/07/29 04:51:18;;;;;;;6.93;4.22;;;;;;;;;;5055257;28;20025;-62
2023/07/29 04:53:44;;;;;;;7.80;4.68;;;;;;;;;;5053356;28;20448;-62
2023/07/29 04:56:10;;;;;;;7.00;4.68;;;;;;;;;;5056474;28;20127;-62
2023/07/29 04:58:36;;;;;;;8.75;3.88;;;;;;;;;;5055919;28;20051;-62
2023/07/29 05:01:03;;;;;;;12.00;5.00;;;;;;;;;;5054496;28;20052;-62
2023/07/29 05:03:29;;;;;;;7.57;4.30;;;;;;;;;;5055675;28;21747;-62
2023/07/29 05:05:56;;;;;;;8.65;4.38;;;;;;;;;;5055343;28;20051;-62
2023/07/29 05:08:22;;;;;;;10.02;4.50;;;;;;;;;;5056235;28;20029;-62
2023/07/29 05:10:52;;;;;;;8.90;4.05;;;;;;;;;;5053317;28;20029;-62
2023/07/29 05:13:18;;;;;;;8.27;4.07;;;;;;;;;;5055289;28;20033;-62
2023/07/29 05:15:45;;;;;;;8.30;4.28;;;;;;;;;;5036239;28;20054;-62
2023/07/29 05:18:11;;;;;;;8.43;4.63;;;;;;;;;;5055599;28;20101;-62
2023/07/29 05:20:37;;;;;;;9.77;4.43;;;;;;;;;;5054426;28;20148;-62
2023/07/29 05:23:03;;;;;;;8.25;4.20;;;;;;;;;;5036978;28;20048;-62
2023/07/29 05:25:30;;;;;;;6.38;4.07;;;;;;;;;;5055212;28;20044;-62
2023/07/29 05:27:57;;;;;;;8.07;4.10;;;;;;;;;;5059489;28;20209;-62
2023/07/29 05:30:23;;;;;;;7.32;3.80;;;;;;;;;;5057806;28;20062;-62
2023/07/29 05:32:49;;;;;;;7.85;4.07;;;;;;;;;;5056454;28;21174;-62
2023/07/29 05:35:15;;;;;;;10.00;3.65;;;;;;;;;;5057801;28;20111;-62
2023/07/29 05:37:41;;;;;;;8.98;3.78;;;;;;;;;;5057562;28;20036;-62
2023/07/29 05:40:11;;;;;;;11.15;3.83;;;;;;;;;;5058142;28;20487;-62
2023/07/29 05:42:37;;;;;;;9.57;3.30;;;;;;;;;;5058049;28;20775;-62
2023/07/29 05:45:03;;;;;;;7.40;3.70;;;;;;;;;;5057498;28;20521;-62
2023/07/29 05:47:29;;;;;;;6.72;3.67;;;;;;;;;;5056419;28;20491;-62
2023/07/29 05:49:55;;;;;;;6.30;3.20;;;;;;;;;;5054008;28;21794;-62
2023/07/29 05:52:21;;;;;;;6.90;3.53;;;;;;;;;;5040360;28;20040;-62
2023/07/29 05:54:47;;;;;;;6.05;3.33;;;;;;;;;;5058028;28;20125;-62
2023/07/29 05:57:13;;;;;;;6.72;3.80;;;;;;;;;;5041028;28;20073;-62
2023/07/29 05:59:39;;;;;;;6.38;3.83;;;;;;;;;;5057219;28;20028;-62
2023/07/29 06:02:05;;;;;;;7.43;3.65;;;;;;;;;;5057784;28;20048;-62
2023/07/29 06:04:31;;;;;;;7.65;3.45;;;;;;;;;;5055885;28;20457;-62
2023/07/29 06:06:57;;;;;;;6.57;3.13;;;;;;;;;;5056529;28;20387;-62
2023/07/29 06:09:25;;;;;;;7.78;3.22;;;;;;;;;;5054226;28;20016;-62
2023/07/29 06:11:51;;;;;;;8.23;3.40;;;;;;;;;;5054025;28;20654;-62
2023/07/29 06:14:17;;;;;;;8.38;4.07;;;;;;;;;;5052326;28;20024;-62
2023/07/29 06:16:43;;;;;;;8.85;3.65;;;;;;;;;;5054075;28;20729;-62
2023/07/29 06:19:09;;;;;;;9.40;3.65;;;;;;;;;;5037407;28;20050;-62
2023/07/29 06:21:35;;;;;;;12.07;3.80;;;;;;;;;;5053044;28;21669;-62
2023/07/29 06:24:03;;;;;;;6.82;3.33;;;;;;;;;;5052776;28;20055;-62
2023/07/29 06:26:29;;;;;;;6.75;3.55;;;;;;;;;;5032057;28;21781;-62
2023/07/29 06:28:55;;;;;;;10.32;3.53;;;;;;;;;;5053552;28;20063;-62
2023/07/29 06:31:21;;;;;;;8.55;3.60;;;;;;;;;;5056080;28;20074;-62
2023/07/29 06:33:47;;;;;;;6.47;2.95;;;;;;;;;;5055284;28;20031;-61
2023/07/29 06:36:13;;;;;;;8.75;3.10;;;;;;;;;;5058456;28;20032;-62
2023/07/29 06:38:40;;;;;;;9.13;3.08;;;;;;;;;;5057267;28;20032;-62
2023/07/29 06:41:07;;;;;;;10.38;3.80;;;;;;;;;;5056112;28;20028;-62
2023/07/29 06:43:33;;;;;;;10.48;3.63;;;;;;;;;;5058386;28;21661;-62
2023/07/29 06:45:59;;;;;;;7.95;3.53;;;;;;;;;;5041102;28;20104;-62
2023/07/29 06:48:25;;;;;;;7.72;3.47;;;;;;;;;;5058166;28;20377;-62
2023/07/29 06:50:52;;;;;;;7.15;3.25;;;;;;;;;;5058555;28;20115;-62
2023/07/29 06:53:18;;;;;;;6.53;3.30;;;;;;;;;;5058867;28;20036;-62
2023/07/29 06:55:44;;;;;;;6.20;3.08;;;;;;;;;;5057362;28;20028;-62
2023/07/29 06:58:11;;;;;;;9.43;3.67;;;;;;;;;;5058742;28;20020;-62
2023/07/29 07:00:37;;;;;;;7.35;3.13;;;;;;;;;;5057199;28;20033;-62
2023/07/29 07:03:03;;;;;;;8.15;3.35;;;;;;;;;;5057772;28;20115;-62
2023/07/29 07:05:29;;;;;;;9.75;3.63;;;;;;;;;;5058286;28;20028;-62
2023/07/29 07:07:55;;;;;;;10.48;3.55;;;;;;;;;;5058961;28;20582;-62
2023/07/29 07:10:21;;;;;;;9.95;3.45;;;;;;;;;;5057692;28;20570;-62
2023/07/29 07:12:47;;;;;;;12.10;3.03;;;;;;;;;;5058027;28;20028;-62
2023/07/29 07:15:13;;;;;;;7.72;3.25;;;;;;;;;;5058266;28;20138;-62
2023/07/29 07:17:39;;;;;;;7.55;3.28;;;;;;;;;;5058769;28;20068;-62
2023/07/29 07:20:06;;;;;;;9.65;3.10;;;;;;;;;;5057039;28;20039;-62
2023/07/29 07:22:32;;;;;;;11.80;4.30;;;;;;;;;;5058180;28;20036;-62
2023/07/29 07:24:58;;;;;;;7.70;3.58;;;;;;;;;;5058667;28;20043;-62
2023/07/29 07:27:24;;;;;;;9.43;3.70;;;;;;;;;;5056039;28;20040;-62
2023/07/29 07:29:50;;;;;;;6.40;2.83;;;;;;;;;;5057939;28;20051;-62
2023/07/29 07:32:16;;;;;;;8.70;3.40;;;;;;;;;;5057838;28;20031;-62
2023/07/29 07:34:42;;;;;;;8.95;3.13;;;;;;;;;;5058517;28;20024;-62
2023/07/29 07:37:08;;;;;;;9.15;3.38;;;;;;;;;;5039824;28;20032;-62
2023/07/29 07:39:34;;;;;;;7.32;3.05;;;;;;;;;;5057576;28;20037;-62
2023/07/29 07:42:00;;;;;;;9.52;3.20;;;;;;;;;;5057690;28;20506;-63
2023/07/29 07:44:26;;;;;;;8.60;3.00;;;;;;;;;;5058121;28;20047;-62
2023/07/29 07:46:53;;;;;;;11.63;3.75;;;;;;;;;;5057988;28;20032;-62
2023/07/29 07:49:19;;;;;;;10.93;3.60;;;;;;;;;;5056108;28;20064;-62
2023/07/29 07:51:46;;;;;;;6.63;3.03;;;;;;;;;;5058283;28;20055;-62
2023/07/29 07:54:12;;;;;;;11.07;3.15;;;;;;;;;;5058401;28;20028;-62
2023/07/29 07:56:38;;;;;;;7.72;3.28;;;;;;;;;;5057488;28;20040;-62
2023/07/29 07:59:04;;;;;;;10.20;3.00;;;;;;;;;;5057858;28;20033;-62
2023/07/29 08:01:35;;;;;;;9.23;2.95;;;;;;;;;;5055993;28;20028;-62
2023/07/29 08:04:01;;;;;;;10.75;2.97;;;;;;;;;;5037656;28;20430;-62
2023/07/29 08:06:27;;;;;;;7.28;3.20;;;;;;;;;;5055696;28;20037;-62
2023/07/29 08:08:53;;;;;;;6.35;2.50;;;;;;;;;;5055552;28;20135;-62
2023/07/29 08:11:19;;;;;;;9.45;2.90;;;;;;;;;;5057062;28;20075;-62
2023/07/29 08:13:46;;;;;;;8.32;2.90;;;;;;;;;;5057416;28;20035;-61
2023/07/29 08:16:12;;;;;;;11.02;3.38;;;;;;;;;;5037866;28;20032;-62
2023/07/29 08:18:38;;;;;;;7.25;3.30;;;;;;;;;;5056641;28;20040;-62
2023/07/29 08:21:05;;;;;;;8.50;3.05;;;;;;;;;;5057784;28;20092;-62
2023/07/29 08:23:31;;;;;;;6.40;2.92;;;;;;;;;;5042574;28;20037;-62
2023/07/29 08:26:02;;;;;;;8.05;3.17;;;;;;;;;;5057511;28;20115;-62
2023/07/29 08:28:35;;;;;;;9.60;2.60;;;;;;;;;;5057334;28;20028;-62
2023/07/29 08:31:01;;;;;;;6.82;2.38;;;;;;;;;;5056997;28;20032;-62
2023/07/29 08:33:28;;;;;;;7.40;2.38;;;;;;;;;;5056007;28;20694;-62
2023/07/29 08:35:54;;;;;;;8.25;2.55;;;;;;;;;;5054570;28;20052;-62
2023/07/29 08:38:20;;;;;;;7.88;2.60;;;;;;;;;;5038041;28;20036;-62
2023/07/29 08:41:07;;;;;;;8.73;2.40;;;;;;;;;;5055576;28;20079;-62
2023/07/29 08:43:33;;;;;;;7.88;2.50;;;;;;;;;;5038782;28;20048;-62
2023/07/29 08:46:00;;;;;;;6.43;1.98;;;;;;;;;;5055490;28;20484;-62
2023/07/29 08:48:33;;;;;;;6.68;2.15;;;;;;;;;;5038847;28;20059;-62
2023/07/29 08:51:00;;;;;;;6.28;2.30;;;;;;;;;;5057195;28;20025;-62
2023/07/29 08:53:27;;;;;;;6.35;2.10;;;;;;;;;;5057328;28;20032;-62
2023/07/29 08:55:55;;;;;;;5.65;2.47;;;;;;;;;;5056302;28;20024;-62
2023/07/29 08:58:22;;;;;;;8.25;2.00;;;;;;;;;;5056567;28;21858;-62
2023/07/29 09:00:48;;;;;;;7.78;2.42;;;;;;;;;;5057606;28;20033;-62
2023/07/29 09:03:14;;;;;;;6.97;1.70;;;;;;;;;;5058492;28;20124;-62
2023/07/29 09:05:40;;;;;;;6.50;2.00;;;;;;;;;;5059601;28;20079;-62
2023/07/29 09:08:07;;;;;;;5.13;1.85;;;;;;;;;;5060577;28;20032;-62
2023/07/29 09:10:37;;;;;;;5.68;1.90;;;;;;;;;;5060232;28;20038;-62
2023/07/29 09:13:03;;;;;;;7.45;2.15;;;;;;;;;;5060566;28;20044;-62
2023/07/29 09:15:30;;;;;;;4.75;2.03;;;;;;;;;;5058439;28;20395;-62
2023/07/29 09:17:57;;;;;;;6.97;2.15;;;;;;;;;;5059636;28;20122;-62
2023/07/29 09:20:26;;;;;;;4.38;1.63;;;;;;;;;;5060014;28;20032;-62
2023/07/29 09:22:53;;;;;;;5.40;1.98;;;;;;;;;;5058054;28;20043;-62
2023/07/29 09:25:26;;;;;;;6.60;2.05;;;;;;;;;;5059337;28;20171;-62
2023/07/29 09:27:53;;;;;;;5.72;1.73;;;;;;;;;;5059445;28;20800;-63
2023/07/29 09:30:19;;;;;;;6.03;2.03;;;;;;;;;;5059892;28;20024;-62
2023/07/29 09:32:45;;;;;;;7.30;1.77;;;;;;;;;;5060425;28;20334;-62
2023/07/29 09:35:12;;;;;;;6.32;1.35;;;;;;;;;;5058809;28;20036;-62
2023/07/29 09:37:38;;;;;;;4.38;1.80;;;;;;;;;;5060402;28;20073;-62
2023/07/29 09:40:05;;;;;;;7.47;1.80;;;;;;;;;;5042359;28;20151;-62
2023/07/29 09:42:31;;;;;;;3.65;1.20;;;;;;;;;;5058329;28;20499;-62
2023/07/29 09:44:57;;;;;;;6.43;1.48;;;;;;;;;;5058755;28;21093;-62
2023/07/29 09:47:24;;;;;;;5.22;1.38;;;;;;;;;;5059363;28;21658;-62
2023/07/29 09:49:51;;;;;;;4.82;1.20;;;;;;;;;;5059741;28;20922;-62
2023/07/29 09:52:20;;;;;;;6.10;1.80;;;;;;;;;;5059604;28;20036;-62
2023/07/29 09:54:47;;;;;;;5.55;1.35;;;;;;;;;;5060438;28;20032;-62
2023/07/29 09:57:17;;;;;;;7.90;1.50;;;;;;;;;;5060029;28;20105;-62
2023/07/29 09:59:43;;;;;;;7.88;1.98;;;;;;;;;;5060246;28;20035;-62
2023/07/29 10:02:14;;;;;;;5.43;1.40;;;;;;;;;;5059614;28;20046;-62
2023/07/29 10:04:40;;;;;;;5.28;1.45;;;;;;;;;;5059366;28;20024;-62
2023/07/29 10:07:10;;;;;;;5.25;1.75;;;;;;;;;;5059280;28;20638;-62
2023/07/29 10:09:38;;;;;;;4.65;1.50;;;;;;;;;;5058986;28;21784;-62
2023/07/29 10:12:06;;;;;;;6.03;1.25;;;;;;;;;;5059858;28;20532;-62
2023/07/29 10:14:32;;;;;;;7.30;1.70;;;;;;;;;;5060439;28;20128;-62
2023/07/29 10:16:59;;;;;;;7.20;1.60;;;;;;;;;;5058433;28;20028;-62
2023/07/29 10:19:26;;;;;;;4.78;1.55;;;;;;;;;;5057804;28;20051;-62
2023/07/29 10:21:52;;;;;;;4.45;1.40;;;;;;;;;;5059944;28;20028;-62
2023/07/29 10:24:28;;;;;;;4.65;1.58;;;;;;;;;;5059410;28;21751;-62
2023/07/29 10:26:55;;;;;;;4.82;1.60;;;;;;;;;;5057056;28;20066;-62
2023/07/29 10:29:21;;;;;;;7.28;1.52;;;;;;;;;;5057170;28;20560;-62
2023/07/29 10:31:48;;;;;;;4.78;1.27;;;;;;;;;;5058722;28;20056;-62
2023/07/29 10:34:14;;;;;;;5.75;1.58;;;;;;;;;;5057477;28;20032;-62
2023/07/29 10:36:41;;;;;;;6.07;1.42;;;;;;;;;;5056776;28;20025;-63
2023/07/29 10:39:07;;;;;;;5.80;1.48;;;;;;;;;;5058620;28;20032;-62
2023/07/29 10:41:52;;;;;;;4.85;1.55;;;;;;;;;;5059604;28;20122;-62
2023/07/29 10:44:42;;;;;;;7.20;1.42;;;;;;;;;;5044845;28;20032;-63
2023/07/29 10:47:14;;;;;;;4.75;1.42;;;;;;;;;;5058601;28;20036;-63
2023/07/29 10:49:41;;;;;;;4.97;1.60;;;;;;;;;;5059671;28;20036;-62
2023/07/29 10:52:07;;;;;;;6.53;1.58;;;;;;;;;;5058734;28;20044;-63
2023/07/29 10:54:46;;;;;;;5.15;1.60;;;;;;;;;;5059089;28;20032;-62
2023/07/29 10:57:15;;;;;;;3.53;1.13;;;;;;;;;;5057606;28;20040;-63
2023/07/29 10:59:42;;;;;;;4.68;1.63;;;;;;;;;;5058633;28;20402;-62
2023/07/29 11:02:16;;;;;;;3.72;1.40;;;;;;;;;;5058732;28;20098;-62
2023/07/29 11:04:54;;;;;;;6.88;1.70;;;;;;;;;;5058153;28;20088;-62
2023/07/29 11:07:26;;;;;;;10.60;2.70;;;;;;;;;;5057406;28;21866;-63
2023/07/29 11:09:53;;;;;;;8.43;2.25;;;;;;;;;;5059351;28;20141;-63
2023/07/29 11:12:38;;;;;;;7.57;1.55;;;;;;;;;;5057634;28;20021;-63
2023/07/29 11:15:14;;;;;;;5.30;1.17;;;;;;;;;;5057801;28;20433;-63
2023/07/29 11:17:45;;;;;;;3.72;1.35;;;;;;;;;;5057498;28;20021;-63
2023/07/29 11:20:12;;;;;;;9.52;1.60;;;;;;;;;;5058254;28;20668;-63
2023/07/29 11:22:38;;;;;;;5.88;1.70;;;;;;;;;;5055759;28;20081;-63
2023/07/29 11:25:05;;;;;;;10.10;1.98;;;;;;;;;;5056874;28;20031;-63
2023/07/29 11:27:31;;;;;;;4.90;2.08;;;;;;;;;;5057622;28;20032;-63
2023/07/29 11:29:58;;;;;;;6.55;1.58;;;;;;;;;;5057354;28;20585;-63
2023/07/29 11:32:25;;;;;;;4.80;1.55;;;;;;;;;;5057387;28;20036;-63
2023/07/29 11:34:51;;;;;;;4.50;1.67;;;;;;;;;;5057068;28;20050;-63
2023/07/29 11:37:17;;;;;;;5.03;1.77;;;;;;;;;;5057281;28;20491;-63
2023/07/29 11:39:44;;;;;;;5.13;2.03;;;;;;;;;;5057027;28;20045;-62
2023/07/29 11:42:13;;;;;;;4.97;1.70;;;;;;;;;;5057426;28;20033;-63
2023/07/29 11:44:39;;;;;;;4.97;2.40;;;;;;;;;;5057158;28;20036;-62
2023/07/29 11:47:09;;;;;;;9.65;2.30;;;;;;;;;;5056387;28;20099;-62
2023/07/29 11:49:36;;;;;;;7.18;1.80;;;;;;;;;;5055919;28;20055;-62
2023/07/29 11:52:06;;;;;;;7.65;2.10;;;;;;;;;;5057413;28;20039;-62
2023/07/29 11:54:32;;;;;;;8.25;2.67;;;;;;;;;;5056214;28;20024;-63
2023/07/29 11:56:58;;;;;;;6.07;2.55;;;;;;;;;;5056353;28;20093;-62
2023/07/29 11:59:24;;;;;;;6.43;2.50;;;;;;;;;;5057412;28;20048;-62
2023/07/29 12:01:50;;;;;;;7.60;2.50;;;;;;;;;;5057517;28;20024;-63
2023/07/29 12:04:17;;;;;;;6.18;2.50;;;;;;;;;;5057350;28;20043;-63
2023/07/29 12:06:43;;;;;;;5.28;1.70;;;;;;;;;;5056230;28;20144;-63
2023/07/29 12:09:09;;;;;;;5.53;2.10;;;;;;;;;;5057175;28;20115;-63
2023/07/29 12:11:35;;;;;;;5.90;2.15;;;;;;;;;;5057538;28;21014;-62
2023/07/29 12:14:01;;;;;;;7.03;2.20;;;;;;;;;;5056779;28;20033;-62
2023/07/29 12:16:34;;;;;;;8.55;2.58;;;;;;;;;;5056534;28;20024;-63
2023/07/29 12:19:01;;;;;;;7.13;1.77;;;;;;;;;;5056127;28;20029;-62
2023/07/29 12:21:27;;;;;;;3.38;1.30;;;;;;;;;;5056171;28;20062;-62
2023/07/29 12:23:53;;;;;;;5.18;1.83;;;;;;;;;;5056477;28;20036;-62
2023/07/29 12:26:19;;;;;;;5.78;1.80;;;;;;;;;;5055393;28;20170;-63
2023/07/29 12:28:51;;;;;;;4.55;1.80;;;;;;;;;;5054761;28;20110;-63
2023/07/29 12:31:17;;;;;;;5.22;2.03;;;;;;;;;;5056396;28;20040;-62
2023/07/29 12:33:43;;;;;;;6.50;1.90;;;;;;;;;;5056455;28;20036;-63
2023/07/29 12:36:10;;;;;;;6.85;1.88;;;;;;;;;;5056974;28;20061;-63
2023/07/29 12:38:36;;;;;;;4.25;1.65;;;;;;;;;;5061248;28;20036;-62
2023/07/29 12:41:02;;;;;;;5.93;1.75;;;;;;;;;;5061616;28;20082;-62
2023/07/29 12:43:28;;;;;;;4.20;1.75;;;;;;;;;;5060741;28;20036;-63
2023/07/29 12:45:55;;;;;;;6.30;1.70;;;;;;;;;;5059846;28;20032;-63
2023/07/29 12:48:21;;;;;;;5.72;1.90;;;;;;;;;;5060748;28;20035;-63
2023/07/29 12:50:47;;;;;;;4.57;1.98;;;;;;;;;;5060899;28;20040;-63
2023/07/29 12:53:13;;;;;;;5.15;1.70;;;;;;;;;;5060358;28;20066;-62
2023/07/29 12:55:39;;;;;;;6.80;1.77;;;;;;;;;;5059008;28;20139;-63
2023/07/29 12:58:06;;;;;;;6.63;1.90;;;;;;;;;;5060309;28;21788;-62
2023/07/29 13:00:32;;;;;;;6.43;1.77;;;;;;;;;;5060332;28;20035;-63
2023/07/29 13:02:58;;;;;;;2.85;1.40;;;;;;;;;;5059656;28;20086;-62
2023/07/29 13:05:24;;;;;;;6.00;2.20;;;;;;;;;;5058430;28;20059;-63
2023/07/29 13:07:50;;;;;;;5.93;1.48;;;;;;;;;;5060115;28;20040;-62
2023/07/29 13:10:16;;;;;;;6.07;1.90;;;;;;;;;;5060560;28;20082;-63
2023/07/29 13:12:42;;;;;;;3.90;1.58;;;;;;;;;;5059662;28;20036;-62
2023/07/29 13:15:09;;;;;;;5.82;1.75;;;;;;;;;;5060466;28;20029;-62
2023/07/29 13:17:35;;;;;;;5.10;1.73;;;;;;;;;;5058861;28;20040;-62
2023/07/29 13:20:01;;;;;;;6.15;1.50;;;;;;;;;;5041636;28;20041;-62
2023/07/29 13:22:27;;;;;;;6.82;1.92;;;;;;;;;;5060277;28;20040;-62
2023/07/29 13:24:53;;;;;;;4.65;1.63;;;;;;;;;;5058549;28;20079;-62
2023/07/29 13:27:19;;;;;;;5.55;1.60;;;;;;;;;;5060253;28;20038;-63
2023/07/29 13:29:46;;;;;;;6.68;1.58;;;;;;;;;;5060386;28;20034;-62
2023/07/29 13:32:12;;;;;;;4.15;1.40;;;;;;;;;;5042739;28;20047;-63
2023/07/29 13:34:39;;;;;;;7.45;1.67;;;;;;;;;;5045213;28;20442;-62
2023/07/29 13:37:06;;;;;;;5.88;2.20;;;;;;;;;;5042061;28;20036;-62
2023/07/29 13:39:32;;;;;;;6.18;1.60;;;;;;;;;;5059871;28;20032;-62
2023/07/29 13:41:58;;;;;;;4.97;1.40;;;;;;;;;;5059425;28;20067;-62
2023/07/29 13:44:24;;;;;;;5.38;1.77;;;;;;;;;;5060516;28;20063;-62
2023/07/29 13:46:50;;;;;;;4.28;1.45;;;;;;;;;;5059158;28;20033;-62
2023/07/29 13:49:16;;;;;;;4.93;1.65;;;;;;;;;;5059831;28;20044;-62
2023/07/29 13:51:42;;;;;;;9.40;2.03;;;;;;;;;;5060298;28;20028;-62
2023/07/29 13:54:08;;;;;;;5.85;1.98;;;;;;;;;;5060238;28;20035;-62
2023/07/29 13:56:34;;;;;;;3.85;1.60;;;;;;;;;;5058115;28;20206;-62
2023/07/29 13:59:03;;;;;;;6.32;2.17;;;;;;;;;;5060028;28;20035;-62
2023/07/29 14:01:29;;;;;;;5.03;1.90;;;;;;;;;;5059181;28;20051;-63
2023/07/29 14:03:55;;;;;;;5.78;1.80;;;;;;;;;;5060436;28;20048;-62
2023/07/29 14:06:21;;;;;;;6.80;1.90;;;;;;;;;;5058869;28;20036;-62
2023/07/29 14:08:50;;;;;;;6.05;1.75;;;;;;;;;;5059511;28;20025;-62
2023/07/29 14:11:16;;;;;;;6.07;2.17;;;;;;;;;;5059023;28;20052;-62
2023/07/29 14:13:42;;;;;;;6.07;2.03;;;;;;;;;;5060042;28;20032;-62
2023/07/29 14:16:08;;;;;;;9.82;2.03;;;;;;;;;;5058391;28;20115;-62
2023/07/29 14:18:34;;;;;;;4.90;2.10;;;;;;;;;;5059479;28;20653;-62
2023/07/29 14:21:00;;;;;;;3.78;1.63;;;;;;;;;;5058708;28;20636;-63
2023/07/29 14:23:27;;;;;;;5.72;2.28;;;;;;;;;;5059507;28;20040;-62
2023/07/29 14:25:53;;;;;;;5.50;1.90;;;;;;;;;;5042677;28;20098;-63
2023/07/29 14:28:19;;;;;;;9.73;2.40;;;;;;;;;;5059239;28;20044;-62
2023/07/29 14:30:45;;;;;;;6.00;1.95;;;;;;;;;;5059384;28;20037;-62
2023/07/29 14:33:11;;;;;;;6.35;1.85;;;;;;;;;;5060149;28;20066;-63
2023/07/29 14:35:37;;;;;;;7.85;1.95;;;;;;;;;;5056679;28;20151;-62
2023/07/29 14:38:03;;;;;;;7.00;3.00;;;;;;;;;;5057361;28;20137;-62
2023/07/29 14:40:29;;;;;;;6.85;1.85;;;;;;;;;;5057365;28;20048;-63